sensor_id;sensor_type;location;lat;lon;timestamp;temperature;humidity
31677;DHT22;18385;51.572;6.578;2023-07-02T00:01:10;21.20;62.90
31677;DHT22;18385;51.572;6.578;2023-07-02T00:03:38;21.20;62.90
31677;DHT22;18385;51.572;6.578;2023-07-02T00:06:03;21.20;62.90
31677;DHT22;18385;51.572;6.578;2023-07-02T00:08:29;21.20;63.00
31677;DHT22;18385;51.572;6.578;2023-07-02T00:10:55;21.20;63.00
31677;DHT22;18385;51.572;6.578;2023-07-02T00:13:20;21.10;63.00
31677;DHT22;18385;51.572;6.578;2023-07-02T00:15:46;21.10;63.00
31677;DHT22;18385;51.572;6.578;2023-07-02T00:18:12;21.10;63.10
31677;DHT22;18385;51.572;6.578;2023-07-02T00:20:42;21.10;63.10
31677;DHT22;18385;51.572;6.578;2023-07-02T00:23:08;21.10;63.00
31677;DHT22;18385;51.572;6.578;2023-07-02T00:25:35;21.10;62.90
31677;DHT22;18385;51.572;6.578;2023-07-02T00:28:02;21.10;62.90
31677;DHT22;18385;51.572;6.578;2023-07-02T00:30:27;21.10;62.80
31677;DHT22;18385;51.572;6.578;2023-07-02T00:32:53;21.10;62.80
31677;DHT22;18385;51.572;6.578;2023-07-02T00:35:19;21.10;62.80
31677;DHT22;18385;51.572;6.578;2023-07-02T00:37:44;21.10;62.80
31677;DHT22;18385;51.572;6.578;2023-07-02T00:40:10;21.00;62.90
31677;DHT22;18385;51.572;6.578;2023-07-02T00:42:36;21.00;62.90
31677;DHT22;18385;51.572;6.578;2023-07-02T00:45:02;20.90;62.80
31677;DHT22;18385;51.572;6.578;2023-07-02T00:47:30;20.80;62.80
31677;DHT22;18385;51.572;6.578;2023-07-02T00:49:56;20.70;63.00
31677;DHT22;18385;51.572;6.578;2023-07-02T00:52:21;20.70;63.80
31677;DHT22;18385;51.572;6.578;2023-07-02T00:54:49;20.60;63.10
31677;DHT22;18385;51.572;6.578;2023-07-02T00:57:14;20.60;63.20
31677;DHT22;18385;51.572;6.578;2023-07-02T00:59:40;20.50;63.20
31677;DHT22;18385;51.572;6.578;2023-07-02T01:02:06;20.50;63.20
31677;DHT22;18385;51.572;6.578;2023-07-02T01:04:32;20.60;63.30
31677;DHT22;18385;51.572;6.578;2023-07-02T01:06:58;20.60;63.20
31677;DHT22;18385;51.572;6.578;2023-07-02T01:09:25;20.60;63.10
31677;DHT22;18385;51.572;6.578;2023-07-02T01:12:01;20.60;63.00
31677;DHT22;18385;51.572;6.578;2023-07-02T01:14:48;20.60;62.90
31677;DHT22;18385;51.572;6.578;2023-07-02T01:17:15;20.60;62.80
31677;DHT22;18385;51.572;6.578;2023-07-02T01:19:48;20.60;62.80
31677;DHT22;18385;51.572;6.578;2023-07-02T01:22:22;20.60;62.70
31677;DHT22;18385;51.572;6.578;2023-07-02T01:24:49;20.70;62.60
31677;DHT22;18385;51.572;6.578;2023-07-02T01:27:18;20.70;62.60
31677;DHT22;18385;51.572;6.578;2023-07-02T01:29:46;20.70;62.50
31677;DHT22;18385;51.572;6.578;2023-07-02T01:32:15;20.70;62.40
31677;DHT22;18385;51.572;6.578;2023-07-02T01:34:41;20.70;62.30
31677;DHT22;18385;51.572;6.578;2023-07-02T01:37:09;20.70;62.30
31677;DHT22;18385;51.572;6.578;2023-07-02T01:39:35;20.70;62.20
31677;DHT22;18385;51.572;6.578;2023-07-02T01:42:09;20.70;62.10
31677;DHT22;18385;51.572;6.578;2023-07-02T01:44:35;20.70;62.00
31677;DHT22;18385;51.572;6.578;2023-07-02T01:47:01;20.70;62.00
31677;DHT22;18385;51.572;6.578;2023-07-02T01:49:27;20.60;62.10
31677;DHT22;18385;51.572;6.578;2023-07-02T01:51:53;20.60;62.00
31677;DHT22;18385;51.572;6.578;2023-07-02T01:54:20;20.70;62.00
31677;DHT22;18385;51.572;6.578;2023-07-02T01:56:46;20.60;61.90
31677;DHT22;18385;51.572;6.578;2023-07-02T01:59:12;20.70;61.90
31677;DHT22;18385;51.572;6.578;2023-07-02T02:01:38;20.70;61.90
31677;DHT22;18385;51.572;6.578;2023-07-02T02:04:08;20.70;61.80
31677;DHT22;18385;51.572;6.578;2023-07-02T02:06:34;20.70;61.80
31677;DHT22;18385;51.572;6.578;2023-07-02T02:09:00;20.60;61.70
31677;DHT22;18385;51.572;6.578;2023-07-02T02:11:26;20.60;61.70
31677;DHT22;18385;51.572;6.578;2023-07-02T02:13:52;20.60;61.70
31677;DHT22;18385;51.572;6.578;2023-07-02T02:16:17;20.60;61.70
31677;DHT22;18385;51.572;6.578;2023-07-02T02:18:43;20.50;61.60
31677;DHT22;18385;51.572;6.578;2023-07-02T02:21:09;20.50;61.60
31677;DHT22;18385;51.572;6.578;2023-07-02T02:23:34;20.60;61.60
31677;DHT22;18385;51.572;6.578;2023-07-02T02:26:00;20.60;61.40
31677;DHT22;18385;51.572;6.578;2023-07-02T02:28:26;20.60;61.50
31677;DHT22;18385;51.572;6.578;2023-07-02T02:30:52;20.60;61.50
31677;DHT22;18385;51.572;6.578;2023-07-02T02:33:18;20.60;61.40
31677;DHT22;18385;51.572;6.578;2023-07-02T02:35:44;20.60;61.40
31677;DHT22;18385;51.572;6.578;2023-07-02T02:38:11;20.60;61.40
31677;DHT22;18385;51.572;6.578;2023-07-02T02:40:38;20.50;61.30
31677;DHT22;18385;51.572;6.578;2023-07-02T02:43:06;20.50;61.30
31677;DHT22;18385;51.572;6.578;2023-07-02T02:45:32;20.50;62.10
31677;DHT22;18385;51.572;6.578;2023-07-02T02:47:58;20.50;61.40
31677;DHT22;18385;51.572;6.578;2023-07-02T02:50:23;20.50;61.30
31677;DHT22;18385;51.572;6.578;2023-07-02T02:52:49;20.50;61.40
31677;DHT22;18385;51.572;6.578;2023-07-02T02:55:15;20.50;61.40
31677;DHT22;18385;51.572;6.578;2023-07-02T02:57:40;20.50;61.40
31677;DHT22;18385;51.572;6.578;2023-07-02T03:00:06;20.50;61.30
31677;DHT22;18385;51.572;6.578;2023-07-02T03:02:32;20.40;61.30
31677;DHT22;18385;51.572;6.578;2023-07-02T03:04:58;20.40;61.50
31677;DHT22;18385;51.572;6.578;2023-07-02T03:07:28;20.50;61.40
31677;DHT22;18385;51.572;6.578;2023-07-02T03:09:54;20.50;61.30
31677;DHT22;18385;51.572;6.578;2023-07-02T03:12:21;20.50;61.30
31677;DHT22;18385;51.572;6.578;2023-07-02T03:14:47;20.50;61.30
31677;DHT22;18385;51.572;6.578;2023-07-02T03:17:17;20.50;61.30
31677;DHT22;18385;51.572;6.578;2023-07-02T03:19:42;20.50;61.20
31677;DHT22;18385;51.572;6.578;2023-07-02T03:22:08;20.50;61.20
31677;DHT22;18385;51.572;6.578;2023-07-02T03:24:33;20.50;61.10
31677;DHT22;18385;51.572;6.578;2023-07-02T03:26:59;20.40;61.00
31677;DHT22;18385;51.572;6.578;2023-07-02T03:29:25;20.40;61.10
31677;DHT22;18385;51.572;6.578;2023-07-02T03:31:51;20.40;61.10
31677;DHT22;18385;51.572;6.578;2023-07-02T03:34:16;20.40;61.20
31677;DHT22;18385;51.572;6.578;2023-07-02T03:36:42;20.40;61.20
31677;DHT22;18385;51.572;6.578;2023-07-02T03:39:09;20.40;61.20
31677;DHT22;18385;51.572;6.578;2023-07-02T03:41:35;20.40;61.10
31677;DHT22;18385;51.572;6.578;2023-07-02T03:44:00;20.40;61.10
31677;DHT22;18385;51.572;6.578;2023-07-02T03:46:26;20.30;61.20
31677;DHT22;18385;51.572;6.578;2023-07-02T03:48:52;20.30;61.20
31677;DHT22;18385;51.572;6.578;2023-07-02T03:51:17;20.30;61.20
31677;DHT22;18385;51.572;6.578;2023-07-02T03:53:43;20.30;61.30
31677;DHT22;18385;51.572;6.578;2023-07-02T03:56:09;20.30;61.30
31677;DHT22;18385;51.572;6.578;2023-07-02T03:58:35;20.30;61.30
31677;DHT22;18385;51.572;6.578;2023-07-02T04:01:01;20.40;61.40
31677;DHT22;18385;51.572;6.578;2023-07-02T04:03:26;20.40;61.30
31677;DHT22;18385;51.572;6.578;2023-07-02T04:05:52;20.40;61.30
31677;DHT22;18385;51.572;6.578;2023-07-02T04:08:18;20.40;61.30
31677;DHT22;18385;51.572;6.578;2023-07-02T04:10:46;20.30;61.30
31677;DHT22;18385;51.572;6.578;2023-07-02T04:13:12;20.40;61.50
31677;DHT22;18385;51.572;6.578;2023-07-02T04:15:37;20.30;61.40
31677;DHT22;18385;51.572;6.578;2023-07-02T04:18:03;20.40;61.50
31677;DHT22;18385;51.572;6.578;2023-07-02T04:20:29;20.40;61.40
31677;DHT22;18385;51.572;6.578;2023-07-02T04:22:55;20.40;61.40
31677;DHT22;18385;51.572;6.578;2023-07-02T04:25:21;20.40;61.40
31677;DHT22;18385;51.572;6.578;2023-07-02T04:27:46;20.40;61.30
31677;DHT22;18385;51.572;6.578;2023-07-02T04:30:13;20.40;61.30
31677;DHT22;18385;51.572;6.578;2023-07-02T04:32:39;20.40;61.40
31677;DHT22;18385;51.572;6.578;2023-07-02T04:35:06;20.50;61.40
31677;DHT22;18385;51.572;6.578;2023-07-02T04:37:32;20.50;61.30
31677;DHT22;18385;51.572;6.578;2023-07-02T04:39:57;20.50;61.30
31677;DHT22;18385;51.572;6.578;2023-07-02T04:42:23;20.50;61.30
31677;DHT22;18385;51.572;6.578;2023-07-02T04:44:57;20.50;61.20
31677;DHT22;18385;51.572;6.578;2023-07-02T04:47:29;20.40;61.30
31677;DHT22;18385;51.572;6.578;2023-07-02T04:49:54;20.40;61.40
31677;DHT22;18385;51.572;6.578;2023-07-02T04:52:20;20.40;61.40
31677;DHT22;18385;51.572;6.578;2023-07-02T04:54:45;20.40;61.30
31677;DHT22;18385;51.572;6.578;2023-07-02T04:57:11;20.30;61.30
31677;DHT22;18385;51.572;6.578;2023-07-02T04:59:38;20.20;61.20
31677;DHT22;18385;51.572;6.578;2023-07-02T05:02:04;20.20;61.50
31677;DHT22;18385;51.572;6.578;2023-07-02T05:04:30;20.20;61.70
31677;DHT22;18385;51.572;6.578;2023-07-02T05:06:55;20.10;62.50
31677;DHT22;18385;51.572;6.578;2023-07-02T05:09:21;20.20;61.80
31677;DHT22;18385;51.572;6.578;2023-07-02T05:11:46;20.20;61.60
31677;DHT22;18385;51.572;6.578;2023-07-02T05:14:12;20.10;61.60
31677;DHT22;18385;51.572;6.578;2023-07-02T05:16:38;20.10;61.70
31677;DHT22;18385;51.572;6.578;2023-07-02T05:19:03;20.00;61.80
31677;DHT22;18385;51.572;6.578;2023-07-02T05:21:29;20.00;61.80
31677;DHT22;18385;51.572;6.578;2023-07-02T05:23:54;20.00;61.90
31677;DHT22;18385;51.572;6.578;2023-07-02T05:26:20;20.00;61.90
31677;DHT22;18385;51.572;6.578;2023-07-02T05:28:49;20.00;62.00
31677;DHT22;18385;51.572;6.578;2023-07-02T05:31:14;20.00;62.00
31677;DHT22;18385;51.572;6.578;2023-07-02T05:33:40;20.00;61.90
31677;DHT22;18385;51.572;6.578;2023-07-02T05:36:06;20.00;61.80
31677;DHT22;18385;51.572;6.578;2023-07-02T05:38:32;20.10;61.90
31677;DHT22;18385;51.572;6.578;2023-07-02T05:40:59;20.10;61.70
31677;DHT22;18385;51.572;6.578;2023-07-02T05:43:24;20.20;61.70
31677;DHT22;18385;51.572;6.578;2023-07-02T05:45:58;20.30;61.60
31677;DHT22;18385;51.572;6.578;2023-07-02T05:48:27;20.50;61.30
31677;DHT22;18385;51.572;6.578;2023-07-02T05:50:53;20.70;61.10
31677;DHT22;18385;51.572;6.578;2023-07-02T05:53:19;20.80;60.70
31677;DHT22;18385;51.572;6.578;2023-07-02T05:55:45;20.90;60.40
31677;DHT22;18385;51.572;6.578;2023-07-02T05:58:11;21.00;60.30
31677;DHT22;18385;51.572;6.578;2023-07-02T06:00:36;21.10;60.20
31677;DHT22;18385;51.572;6.578;2023-07-02T06:03:02;21.30;60.00
31677;DHT22;18385;51.572;6.578;2023-07-02T06:05:28;21.50;59.70
31677;DHT22;18385;51.572;6.578;2023-07-02T06:07:54;21.60;59.40
31677;DHT22;18385;51.572;6.578;2023-07-02T06:10:20;21.70;59.10
31677;DHT22;18385;51.572;6.578;2023-07-02T06:12:45;21.70;58.60
31677;DHT22;18385;51.572;6.578;2023-07-02T06:15:11;21.80;58.70
31677;DHT22;18385;51.572;6.578;2023-07-02T06:17:37;21.80;58.40
31677;DHT22;18385;51.572;6.578;2023-07-02T06:20:03;21.80;58.20
31677;DHT22;18385;51.572;6.578;2023-07-02T06:22:33;21.80;58.00
31677;DHT22;18385;51.572;6.578;2023-07-02T06:24:58;21.90;57.90
31677;DHT22;18385;51.572;6.578;2023-07-02T06:27:24;21.80;57.50
31677;DHT22;18385;51.572;6.578;2023-07-02T06:29:49;21.80;57.30
31677;DHT22;18385;51.572;6.578;2023-07-02T06:32:17;21.70;57.40
31677;DHT22;18385;51.572;6.578;2023-07-02T06:34:42;21.70;57.10
31677;DHT22;18385;51.572;6.578;2023-07-02T06:37:08;21.70;57.30
31677;DHT22;18385;51.572;6.578;2023-07-02T06:39:33;21.60;56.70
31677;DHT22;18385;51.572;6.578;2023-07-02T06:41:59;21.60;56.80
31677;DHT22;18385;51.572;6.578;2023-07-02T06:44:28;21.60;56.40
31677;DHT22;18385;51.572;6.578;2023-07-02T06:46:54;21.50;57.10
31677;DHT22;18385;51.572;6.578;2023-07-02T06:49:20;21.50;56.60
31677;DHT22;18385;51.572;6.578;2023-07-02T06:51:46;21.60;56.40
31677;DHT22;18385;51.572;6.578;2023-07-02T06:54:12;21.70;56.30
31677;DHT22;18385;51.572;6.578;2023-07-02T06:56:38;21.70;55.90
31677;DHT22;18385;51.572;6.578;2023-07-02T06:59:04;21.80;55.80
31677;DHT22;18385;51.572;6.578;2023-07-02T07:01:30;21.80;55.30
31677;DHT22;18385;51.572;6.578;2023-07-02T07:03:55;21.90;55.30
31677;DHT22;18385;51.572;6.578;2023-07-02T07:06:21;21.90;55.20
31677;DHT22;18385;51.572;6.578;2023-07-02T07:08:47;22.00;55.10
31677;DHT22;18385;51.572;6.578;2023-07-02T07:11:12;22.00;54.50
31677;DHT22;18385;51.572;6.578;2023-07-02T07:13:38;22.00;54.60
31677;DHT22;18385;51.572;6.578;2023-07-02T07:16:03;22.00;54.40
31677;DHT22;18385;51.572;6.578;2023-07-02T07:18:29;22.00;53.90
31677;DHT22;18385;51.572;6.578;2023-07-02T07:20:55;21.90;54.00
31677;DHT22;18385;51.572;6.578;2023-07-02T07:23:21;22.00;53.90
31677;DHT22;18385;51.572;6.578;2023-07-02T07:33:22;22.00;53.20
31677;DHT22;18385;51.572;6.578;2023-07-02T07:35:48;22.10;53.30
31677;DHT22;18385;51.572;6.578;2023-07-02T07:38:14;22.20;53.10
31677;DHT22;18385;51.572;6.578;2023-07-02T07:40:43;22.30;52.30
31677;DHT22;18385;51.572;6.578;2023-07-02T07:43:09;22.30;52.50
31677;DHT22;18385;51.572;6.578;2023-07-02T07:45:35;22.10;52.20
31677;DHT22;18385;51.572;6.578;2023-07-02T07:48:01;22.20;52.20
31677;DHT22;18385;51.572;6.578;2023-07-02T07:50:27;22.40;52.20
31677;DHT22;18385;51.572;6.578;2023-07-02T07:52:53;22.70;52.50
31677;DHT22;18385;51.572;6.578;2023-07-02T07:55:18;22.60;50.90
31677;DHT22;18385;51.572;6.578;2023-07-02T07:57:44;22.70;50.90
31677;DHT22;18385;51.572;6.578;2023-07-02T08:00:10;22.70;50.40
31677;DHT22;18385;51.572;6.578;2023-07-02T08:02:43;22.80;50.50
31677;DHT22;18385;51.572;6.578;2023-07-02T08:05:09;22.80;49.90
31677;DHT22;18385;51.572;6.578;2023-07-02T08:07:35;22.80;49.70
31677;DHT22;18385;51.572;6.578;2023-07-02T08:10:00;22.80;49.70
31677;DHT22;18385;51.572;6.578;2023-07-02T08:12:28;22.70;49.00
31677;DHT22;18385;51.572;6.578;2023-07-02T08:14:58;22.60;48.80
31677;DHT22;18385;51.572;6.578;2023-07-02T08:17:23;22.60;49.00
31677;DHT22;18385;51.572;6.578;2023-07-02T08:19:49;22.60;48.60
31677;DHT22;18385;51.572;6.578;2023-07-02T08:22:15;22.50;48.40
31677;DHT22;18385;51.572;6.578;2023-07-02T08:24:40;22.50;48.30
31677;DHT22;18385;51.572;6.578;2023-07-02T08:27:06;22.50;48.50
31677;DHT22;18385;51.572;6.578;2023-07-02T08:29:32;22.60;48.40
31677;DHT22;18385;51.572;6.578;2023-07-02T08:31:58;22.80;48.20
31677;DHT22;18385;51.572;6.578;2023-07-02T08:34:24;22.90;47.50
31677;DHT22;18385;51.572;6.578;2023-07-02T08:36:50;22.80;47.20
31677;DHT22;18385;51.572;6.578;2023-07-02T08:39:17;22.60;47.10
31677;DHT22;18385;51.572;6.578;2023-07-02T08:41:44;22.60;47.30
31677;DHT22;18385;51.572;6.578;2023-07-02T08:44:11;22.70;47.30
31677;DHT22;18385;51.572;6.578;2023-07-02T08:46:39;22.80;47.10
31677;DHT22;18385;51.572;6.578;2023-07-02T08:49:06;22.90;47.30
31677;DHT22;18385;51.572;6.578;2023-07-02T08:51:32;23.10;46.20
31677;DHT22;18385;51.572;6.578;2023-07-02T08:53:57;23.10;46.20
31677;DHT22;18385;51.572;6.578;2023-07-02T08:56:23;23.10;45.70
31677;DHT22;18385;51.572;6.578;2023-07-02T08:58:49;23.10;45.50
31677;DHT22;18385;51.572;6.578;2023-07-02T09:01:15;23.10;45.30
31677;DHT22;18385;51.572;6.578;2023-07-02T09:03:41;23.10;44.90
31677;DHT22;18385;51.572;6.578;2023-07-02T09:06:09;23.10;45.80
31677;DHT22;18385;51.572;6.578;2023-07-02T09:08:35;23.20;44.80
31677;DHT22;18385;51.572;6.578;2023-07-02T09:11:14;23.20;43.90
31677;DHT22;18385;51.572;6.578;2023-07-02T09:13:48;23.20;44.20
31677;DHT22;18385;51.572;6.578;2023-07-02T09:16:31;23.30;43.70
31677;DHT22;18385;51.572;6.578;2023-07-02T09:19:04;23.30;43.50
31677;DHT22;18385;51.572;6.578;2023-07-02T09:21:44;23.60;43.60
31677;DHT22;18385;51.572;6.578;2023-07-02T09:24:14;23.90;43.00
31677;DHT22;18385;51.572;6.578;2023-07-02T09:26:48;24.10;42.50
31677;DHT22;18385;51.572;6.578;2023-07-02T09:31:50;24.30;42.40
31677;DHT22;18385;51.572;6.578;2023-07-02T09:34:16;24.40;42.40
31677;DHT22;18385;51.572;6.578;2023-07-02T09:36:43;24.50;41.70
31677;DHT22;18385;51.572;6.578;2023-07-02T09:39:14;24.40;41.70
31677;DHT22;18385;51.572;6.578;2023-07-02T09:41:41;24.50;41.40
31677;DHT22;18385;51.572;6.578;2023-07-02T09:44:08;24.40;41.30
31677;DHT22;18385;51.572;6.578;2023-07-02T09:46:37;24.40;41.60
31677;DHT22;18385;51.572;6.578;2023-07-02T09:49:06;24.50;41.40
31677;DHT22;18385;51.572;6.578;2023-07-02T09:51:34;24.40;41.00
31677;DHT22;18385;51.572;6.578;2023-07-02T09:54:00;24.30;40.70
31677;DHT22;18385;51.572;6.578;2023-07-02T09:56:25;24.20;41.00
31677;DHT22;18385;51.572;6.578;2023-07-02T09:58:51;24.30;41.10
31677;DHT22;18385;51.572;6.578;2023-07-02T10:01:17;24.20;40.70
31677;DHT22;18385;51.572;6.578;2023-07-02T10:03:42;24.20;40.80
31677;DHT22;18385;51.572;6.578;2023-07-02T10:06:08;24.20;40.50
31677;DHT22;18385;51.572;6.578;2023-07-02T10:08:35;24.30;40.70
31677;DHT22;18385;51.572;6.578;2023-07-02T10:11:13;24.30;40.20
31677;DHT22;18385;51.572;6.578;2023-07-02T10:13:40;24.10;39.40
31677;DHT22;18385;51.572;6.578;2023-07-02T10:16:06;23.90;39.50
31677;DHT22;18385;51.572;6.578;2023-07-02T10:18:32;23.90;39.70
31677;DHT22;18385;51.572;6.578;2023-07-02T10:20:58;23.80;39.70
31677;DHT22;18385;51.572;6.578;2023-07-02T10:23:36;23.70;39.30
31677;DHT22;18385;51.572;6.578;2023-07-02T10:26:20;23.50;39.10
31677;DHT22;18385;51.572;6.578;2023-07-02T10:28:58;23.30;39.30
31677;DHT22;18385;51.572;6.578;2023-07-02T10:31:24;23.10;39.50
31677;DHT22;18385;51.572;6.578;2023-07-02T10:33:50;23.00;39.60
31677;DHT22;18385;51.572;6.578;2023-07-02T10:36:20;23.10;39.50
31677;DHT22;18385;51.572;6.578;2023-07-02T10:38:47;23.20;39.70
31677;DHT22;18385;51.572;6.578;2023-07-02T10:41:23;23.60;39.80
31677;DHT22;18385;51.572;6.578;2023-07-02T10:43:49;23.90;39.30
31677;DHT22;18385;51.572;6.578;2023-07-02T10:46:19;23.90;38.40
31677;DHT22;18385;51.572;6.578;2023-07-02T10:48:55;23.70;38.00
31677;DHT22;18385;51.572;6.578;2023-07-02T10:51:21;23.60;38.50
31677;DHT22;18385;51.572;6.578;2023-07-02T10:53:56;23.60;38.60
31677;DHT22;18385;51.572;6.578;2023-07-02T10:56:24;23.50;38.30
31677;DHT22;18385;51.572;6.578;2023-07-02T10:58:50;23.50;38.70
31677;DHT22;18385;51.572;6.578;2023-07-02T11:01:30;23.60;38.60
31677;DHT22;18385;51.572;6.578;2023-07-02T11:06:23;23.70;38.20
31677;DHT22;18385;51.572;6.578;2023-07-02T11:08:48;23.80;38.20
31677;DHT22;18385;51.572;6.578;2023-07-02T11:11:14;23.70;38.00
31677;DHT22;18385;51.572;6.578;2023-07-02T11:13:45;24.00;37.90
31677;DHT22;18385;51.572;6.578;2023-07-02T11:16:25;24.20;37.20
31677;DHT22;18385;51.572;6.578;2023-07-02T11:19:08;24.30;37.10
31677;DHT22;18385;51.572;6.578;2023-07-02T11:21:35;24.40;36.90
31677;DHT22;18385;51.572;6.578;2023-07-02T11:24:05;24.50;37.00
31677;DHT22;18385;51.572;6.578;2023-07-02T11:26:39;24.60;36.70
31677;DHT22;18385;51.572;6.578;2023-07-02T11:29:10;24.70;36.50
31677;DHT22;18385;51.572;6.578;2023-07-02T11:31:36;24.60;36.20
31677;DHT22;18385;51.572;6.578;2023-07-02T11:34:11;24.50;36.60
31677;DHT22;18385;51.572;6.578;2023-07-02T11:36:37;24.50;36.50
31677;DHT22;18385;51.572;6.578;2023-07-02T11:39:03;24.30;36.60
31677;DHT22;18385;51.572;6.578;2023-07-02T11:41:39;24.20;36.90
31677;DHT22;18385;51.572;6.578;2023-07-02T11:44:05;24.40;37.20
31677;DHT22;18385;51.572;6.578;2023-07-02T11:46:31;24.70;37.10
31677;DHT22;18385;51.572;6.578;2023-07-02T11:48:57;25.10;37.00
31677;DHT22;18385;51.572;6.578;2023-07-02T11:51:23;25.50;36.90
31677;DHT22;18385;51.572;6.578;2023-07-02T11:53:48;25.80;36.30
31677;DHT22;18385;51.572;6.578;2023-07-02T11:56:14;25.90;35.80
31677;DHT22;18385;51.572;6.578;2023-07-02T11:58:41;25.90;35.70
31677;DHT22;18385;51.572;6.578;2023-07-02T12:01:07;25.90;35.80
31677;DHT22;18385;51.572;6.578;2023-07-02T12:03:33;25.60;35.50
31677;DHT22;18385;51.572;6.578;2023-07-02T12:05:59;25.30;35.60
31677;DHT22;18385;51.572;6.578;2023-07-02T12:08:25;25.20;36.00
31677;DHT22;18385;51.572;6.578;2023-07-02T12:10:50;25.30;36.50
31677;DHT22;18385;51.572;6.578;2023-07-02T12:13:16;25.50;36.50
31677;DHT22;18385;51.572;6.578;2023-07-02T12:15:42;25.60;36.20
31677;DHT22;18385;51.572;6.578;2023-07-02T12:18:09;25.30;35.70
31677;DHT22;18385;51.572;6.578;2023-07-02T12:20:35;25.20;36.10
31677;DHT22;18385;51.572;6.578;2023-07-02T12:23:00;25.30;36.30
31677;DHT22;18385;51.572;6.578;2023-07-02T12:25:26;25.30;36.00
31677;DHT22;18385;51.572;6.578;2023-07-02T12:27:52;25.30;36.20
31677;DHT22;18385;51.572;6.578;2023-07-02T12:30:18;25.40;36.40
31677;DHT22;18385;51.572;6.578;2023-07-02T12:32:44;25.50;36.10
31677;DHT22;18385;51.572;6.578;2023-07-02T12:35:11;25.50;36.10
31677;DHT22;18385;51.572;6.578;2023-07-02T12:37:43;25.50;36.40
31677;DHT22;18385;51.572;6.578;2023-07-02T12:40:10;25.80;36.20
31677;DHT22;18385;51.572;6.578;2023-07-02T12:42:36;25.70;35.60
31677;DHT22;18385;51.572;6.578;2023-07-02T12:45:01;25.40;35.80
31677;DHT22;18385;51.572;6.578;2023-07-02T12:47:27;25.50;36.30
31677;DHT22;18385;51.572;6.578;2023-07-02T12:49:52;25.60;36.50
31677;DHT22;18385;51.572;6.578;2023-07-02T12:52:18;25.40;35.90
31677;DHT22;18385;51.572;6.578;2023-07-02T12:54:44;25.20;35.80
31677;DHT22;18385;51.572;6.578;2023-07-02T12:57:09;25.10;36.20
31677;DHT22;18385;51.572;6.578;2023-07-02T12:59:35;25.30;36.50
31677;DHT22;18385;51.572;6.578;2023-07-02T13:02:01;25.50;35.90
31677;DHT22;18385;51.572;6.578;2023-07-02T13:04:27;25.50;36.30
31677;DHT22;18385;51.572;6.578;2023-07-02T13:06:53;26.00;37.00
31677;DHT22;18385;51.572;6.578;2023-07-02T13:09:19;26.00;35.70
31677;DHT22;18385;51.572;6.578;2023-07-02T13:11:46;25.80;35.50
31677;DHT22;18385;51.572;6.578;2023-07-02T13:14:11;25.50;35.40
31677;DHT22;18385;51.572;6.578;2023-07-02T13:16:37;25.50;35.60
31677;DHT22;18385;51.572;6.578;2023-07-02T13:19:03;25.70;36.40
31677;DHT22;18385;51.572;6.578;2023-07-02T13:21:29;26.40;36.70
31677;DHT22;18385;51.572;6.578;2023-07-02T13:23:54;27.00;35.90
31677;DHT22;18385;51.572;6.578;2023-07-02T13:26:20;27.20;35.30
31677;DHT22;18385;51.572;6.578;2023-07-02T13:28:46;27.40;35.30
31677;DHT22;18385;51.572;6.578;2023-07-02T13:31:16;27.30;34.70
31677;DHT22;18385;51.572;6.578;2023-07-02T13:33:42;27.00;34.80
31677;DHT22;18385;51.572;6.578;2023-07-02T13:36:08;27.40;35.70
31677;DHT22;18385;51.572;6.578;2023-07-02T13:38:34;28.30;36.00
31677;DHT22;18385;51.572;6.578;2023-07-02T13:41:00;28.50;34.00
31677;DHT22;18385;51.572;6.578;2023-07-02T13:43:26;28.20;33.50
31677;DHT22;18385;51.572;6.578;2023-07-02T13:45:52;27.90;34.00
31677;DHT22;18385;51.572;6.578;2023-07-02T13:48:18;27.90;33.70
31677;DHT22;18385;51.572;6.578;2023-07-02T13:50:43;27.50;33.40
31677;DHT22;18385;51.572;6.578;2023-07-02T13:53:09;27.70;34.50
31677;DHT22;18385;51.572;6.578;2023-07-02T13:55:35;27.60;33.60
31677;DHT22;18385;51.572;6.578;2023-07-02T13:58:01;27.30;33.50
31677;DHT22;18385;51.572;6.578;2023-07-02T14:00:27;27.40;33.90
31677;DHT22;18385;51.572;6.578;2023-07-02T14:02:53;27.10;33.50
31677;DHT22;18385;51.572;6.578;2023-07-02T14:05:19;26.90;33.70
31677;DHT22;18385;51.572;6.578;2023-07-02T14:07:44;26.50;33.70
31677;DHT22;18385;51.572;6.578;2023-07-02T14:10:10;26.20;34.10
31677;DHT22;18385;51.572;6.578;2023-07-02T14:12:38;26.50;35.00
31677;DHT22;18385;51.572;6.578;2023-07-02T14:15:04;27.00;34.10
31677;DHT22;18385;51.572;6.578;2023-07-02T14:17:30;26.80;33.50
31677;DHT22;18385;51.572;6.578;2023-07-02T14:19:56;26.60;33.80
31677;DHT22;18385;51.572;6.578;2023-07-02T14:22:21;26.90;34.60
31677;DHT22;18385;51.572;6.578;2023-07-02T14:24:47;27.70;34.10
31677;DHT22;18385;51.572;6.578;2023-07-02T14:27:13;27.50;33.10
31677;DHT22;18385;51.572;6.578;2023-07-02T14:29:39;28.30;35.10
31677;DHT22;18385;51.572;6.578;2023-07-02T14:32:05;29.10;33.50
31677;DHT22;18385;51.572;6.578;2023-07-02T14:34:31;29.90;32.70
31677;DHT22;18385;51.572;6.578;2023-07-02T14:36:58;30.60;32.00
31677;DHT22;18385;51.572;6.578;2023-07-02T14:39:24;30.10;30.30
31677;DHT22;18385;51.572;6.578;2023-07-02T14:41:50;29.30;31.10
31677;DHT22;18385;51.572;6.578;2023-07-02T14:44:16;29.90;32.60
31677;DHT22;18385;51.572;6.578;2023-07-02T14:46:41;30.40;31.10
31677;DHT22;18385;51.572;6.578;2023-07-02T14:49:08;30.20;30.60
31677;DHT22;18385;51.572;6.578;2023-07-02T14:51:34;29.70;29.80
31677;DHT22;18385;51.572;6.578;2023-07-02T14:53:59;29.00;30.00
31677;DHT22;18385;51.572;6.578;2023-07-02T14:56:27;28.80;31.30
31677;DHT22;18385;51.572;6.578;2023-07-02T14:58:52;30.10;31.70
31677;DHT22;18385;51.572;6.578;2023-07-02T15:01:18;31.20;30.00
31677;DHT22;18385;51.572;6.578;2023-07-02T15:03:43;31.70;29.40
31677;DHT22;18385;51.572;6.578;2023-07-02T15:06:14;32.20;28.70
31677;DHT22;18385;51.572;6.578;2023-07-02T15:08:40;32.60;28.00
31677;DHT22;18385;51.572;6.578;2023-07-02T15:11:06;32.00;27.60
31677;DHT22;18385;51.572;6.578;2023-07-02T15:13:32;32.20;28.10
31677;DHT22;18385;51.572;6.578;2023-07-02T15:15:58;32.80;27.60
31677;DHT22;18385;51.572;6.578;2023-07-02T15:18:25;31.90;27.10
31677;DHT22;18385;51.572;6.578;2023-07-02T15:20:52;30.90;27.40
31677;DHT22;18385;51.572;6.578;2023-07-02T15:23:23;30.30;28.20
31677;DHT22;18385;51.572;6.578;2023-07-02T15:26:03;31.30;28.60
31677;DHT22;18385;51.572;6.578;2023-07-02T15:28:30;32.00;27.60
31677;DHT22;18385;51.572;6.578;2023-07-02T15:31:02;32.30;27.00
31677;DHT22;18385;51.572;6.578;2023-07-02T15:33:28;31.90;26.60
31677;DHT22;18385;51.572;6.578;2023-07-02T15:35:54;31.00;26.70
31677;DHT22;18385;51.572;6.578;2023-07-02T15:38:20;30.20;27.20
31677;DHT22;18385;51.572;6.578;2023-07-02T15:40:47;29.60;27.50